sensor_id;sensor_type;location;lat;lon;timestamp;pressure;altitude;pressure_sealevel;temperature;humidity
64115;BME280;62188;35.640;139.748;2023-04-04T00:00:38;102544.51;;;21.09;24.79
64115;BME280;62188;35.640;139.748;2023-04-04T00:03:04;102550.55;;;21.34;24.67
64115;BME280;62188;35.640;139.748;2023-04-04T00:05:30;102553.67;;;21.60;24.22
64115;BME280;62188;35.640;139.748;2023-04-04T00:07:56;102550.03;;;21.47;23.98
64115;BME280;62188;35.640;139.748;2023-04-04T00:10:21;102546.96;;;21.58;23.62
64115;BME280;62188;35.640;139.748;2023-04-04T00:12:49;102548.12;;;21.94;23.72
64115;BME280;62188;35.640;139.748;2023-04-04T00:15:12;102549.14;;;21.53;23.61
64115;BME280;62188;35.640;139.748;2023-04-04T00:17:37;102551.83;;;21.72;23.46
64115;BME280;62188;35.640;139.748;2023-04-04T00:20:02;102550.03;;;21.71;23.13
64115;BME280;62188;35.640;139.748;2023-04-04T00:22:28;102547.65;;;21.64;23.44
64115;BME280;62188;35.640;139.748;2023-04-04T00:24:53;102550.67;;;21.77;23.62
64115;BME280;62188;35.640;139.748;2023-04-04T00:27:19;102549.01;;;21.74;23.38
64115;BME280;62188;35.640;139.748;2023-04-04T00:29:44;102548.79;;;21.86;23.24
64115;BME280;62188;35.640;139.748;2023-04-04T00:32:09;102543.76;;;21.91;23.19
64115;BME280;62188;35.640;139.748;2023-04-04T00:34:35;102538.46;;;22.26;22.99
64115;BME280;62188;35.640;139.748;2023-04-04T00:37:00;102531.56;;;21.93;22.83
64115;BME280;62188;35.640;139.748;2023-04-04T00:39:26;102525.40;;;21.76;23.14
64115;BME280;62188;35.640;139.748;2023-04-04T00:41:51;102522.26;;;21.97;23.17
64115;BME280;62188;35.640;139.748;2023-04-04T00:44:17;102520.35;;;22.10;22.86
64115;BME280;62188;35.640;139.748;2023-04-04T00:46:42;102519.46;;;21.66;22.43
64115;BME280;62188;35.640;139.748;2023-04-04T00:49:08;102517.91;;;21.95;22.50
64115;BME280;62188;35.640;139.748;2023-04-04T00:51:33;102512.60;;;22.15;22.38
64115;BME280;62188;35.640;139.748;2023-04-04T00:53:59;102510.81;;;22.38;22.39
64115;BME280;62188;35.640;139.748;2023-04-04T00:56:24;102508.29;;;22.26;22.25
64115;BME280;62188;35.640;139.748;2023-04-04T00:58:49;102504.30;;;22.22;22.46
64115;BME280;62188;35.640;139.748;2023-04-04T01:01:15;102506.98;;;22.48;21.96
64115;BME280;62188;35.640;139.748;2023-04-04T01:03:41;102507.21;;;22.50;21.99
64115;BME280;62188;35.640;139.748;2023-04-04T01:06:05;102503.35;;;22.63;21.70
64115;BME280;62188;35.640;139.748;2023-04-04T01:08:31;102506.57;;;22.42;21.88
64115;BME280;62188;35.640;139.748;2023-04-04T01:10:56;102506.84;;;22.37;21.87
64115;BME280;62188;35.640;139.748;2023-04-04T01:13:22;102509.96;;;22.42;21.94
64115;BME280;62188;35.640;139.748;2023-04-04T01:15:47;102511.78;;;22.67;22.12
64115;BME280;62188;35.640;139.748;2023-04-04T01:18:15;102512.63;;;22.75;22.38
64115;BME280;62188;35.640;139.748;2023-04-04T01:20:46;102513.80;;;23.05;21.97
64115;BME280;62188;35.640;139.748;2023-04-04T01:23:05;102516.08;;;22.83;22.34
64115;BME280;62188;35.640;139.748;2023-04-04T01:25:30;102510.36;;;22.89;22.27
64115;BME280;62188;35.640;139.748;2023-04-04T01:27:56;102508.97;;;23.13;22.07
64115;BME280;62188;35.640;139.748;2023-04-04T01:30:21;102508.06;;;23.30;22.06
64115;BME280;62188;35.640;139.748;2023-04-04T01:32:50;102503.94;;;23.25;21.66
64115;BME280;62188;35.640;139.748;2023-04-04T01:35:20;102502.85;;;23.53;21.28
64115;BME280;62188;35.640;139.748;2023-04-04T01:37:43;102500.03;;;23.24;20.81
64115;BME280;62188;35.640;139.748;2023-04-04T01:40:11;102497.98;;;23.45;20.84
64115;BME280;62188;35.640;139.748;2023-04-04T01:42:29;102499.37;;;23.14;20.08
64115;BME280;62188;35.640;139.748;2023-04-04T01:44:56;102493.64;;;23.21;19.37
64115;BME280;62188;35.640;139.748;2023-04-04T01:47:19;102485.75;;;23.73;19.26
64115;BME280;62188;35.640;139.748;2023-04-04T01:49:45;102485.08;;;23.45;19.19
64115;BME280;62188;35.640;139.748;2023-04-04T01:52:10;102480.96;;;23.40;19.19
64115;BME280;62188;35.640;139.748;2023-04-04T01:54:36;102476.14;;;23.26;19.11
64115;BME280;62188;35.640;139.748;2023-04-04T01:57:02;102478.06;;;23.22;19.45
64115;BME280;62188;35.640;139.748;2023-04-04T01:59:27;102474.57;;;23.43;19.42
64115;BME280;62188;35.640;139.748;2023-04-04T02:01:52;102473.04;;;23.57;19.77
64115;BME280;62188;35.640;139.748;2023-04-04T02:04:17;102470.75;;;23.31;19.79
64115;BME280;62188;35.640;139.748;2023-04-04T02:06:43;102467.66;;;23.55;19.80
64115;BME280;62188;35.640;139.748;2023-04-04T02:09:09;102466.22;;;23.34;19.50
64115;BME280;62188;35.640;139.748;2023-04-04T02:11:33;102461.71;;;23.50;18.71
64115;BME280;62188;35.640;139.748;2023-04-04T02:13:59;102456.99;;;23.26;18.52
64115;BME280;62188;35.640;139.748;2023-04-04T02:16:25;102459.82;;;23.51;17.82
64115;BME280;62188;35.640;139.748;2023-04-04T02:18:50;102455.94;;;23.28;17.77
64115;BME280;62188;35.640;139.748;2023-04-04T02:21:16;102452.49;;;23.56;17.54
64115;BME280;62188;35.640;139.748;2023-04-04T02:23:41;102447.95;;;23.56;17.64
64115;BME280;62188;35.640;139.748;2023-04-04T02:26:07;102441.98;;;23.68;17.33
64115;BME280;62188;35.640;139.748;2023-04-04T02:28:33;102440.68;;;24.05;17.82
64115;BME280;62188;35.640;139.748;2023-04-04T02:31:01;102436.52;;;24.10;17.69
64115;BME280;62188;35.640;139.748;2023-04-04T02:33:23;102435.67;;;23.56;17.49
64115;BME280;62188;35.640;139.748;2023-04-04T02:35:49;102433.85;;;23.78;17.51
64115;BME280;62188;35.640;139.748;2023-04-04T02:38:14;102432.77;;;23.70;17.76
64115;BME280;62188;35.640;139.748;2023-04-04T02:40:40;102433.94;;;23.36;17.94
64115;BME280;62188;35.640;139.748;2023-04-04T02:43:06;102430.71;;;23.89;18.88
64115;BME280;62188;35.640;139.748;2023-04-04T02:45:31;102430.37;;;23.40;19.52
64115;BME280;62188;35.640;139.748;2023-04-04T02:47:57;102426.64;;;23.44;19.78
64115;BME280;62188;35.640;139.748;2023-04-04T02:50:22;102427.34;;;23.46;19.54
64115;BME280;62188;35.640;139.748;2023-04-04T02:52:47;102423.44;;;23.19;20.43
64115;BME280;62188;35.640;139.748;2023-04-04T02:55:13;102416.45;;;22.50;20.18
64115;BME280;62188;35.640;139.748;2023-04-04T02:57:38;102408.30;;;22.39;19.67
64115;BME280;62188;35.640;139.748;2023-04-04T03:00:05;102407.44;;;22.09;20.45
64115;BME280;62188;35.640;139.748;2023-04-04T03:02:30;102402.38;;;22.12;21.33
64115;BME280;62188;35.640;139.748;2023-04-04T03:04:55;102405.40;;;22.05;21.60
64115;BME280;62188;35.640;139.748;2023-04-04T03:07:21;102399.43;;;21.83;21.78
64115;BME280;62188;35.640;139.748;2023-04-04T03:09:47;102397.85;;;21.78;21.94
64115;BME280;62188;35.640;139.748;2023-04-04T03:12:12;102395.09;;;21.79;21.92
64115;BME280;62188;35.640;139.748;2023-04-04T03:14:36;102386.41;;;21.84;22.02
64115;BME280;62188;35.640;139.748;2023-04-04T03:17:02;102379.21;;;21.87;21.29
64115;BME280;62188;35.640;139.748;2023-04-04T03:19:28;102368.68;;;21.95;21.05
64115;BME280;62188;35.640;139.748;2023-04-04T03:21:53;102365.82;;;22.13;20.39
64115;BME280;62188;35.640;139.748;2023-04-04T03:24:19;102359.18;;;22.25;20.68
64115;BME280;62188;35.640;139.748;2023-04-04T03:26:45;102357.91;;;22.21;20.86
64115;BME280;62188;35.640;139.748;2023-04-04T03:29:10;102353.23;;;22.12;20.91
64115;BME280;62188;35.640;139.748;2023-04-04T03:31:35;102349.29;;;22.22;20.55
64115;BME280;62188;35.640;139.748;2023-04-04T03:34:01;102344.81;;;22.46;20.21
64115;BME280;62188;35.640;139.748;2023-04-04T03:36:26;102334.67;;;22.26;20.26
64115;BME280;62188;35.640;139.748;2023-04-04T03:38:52;102329.68;;;21.93;19.35
64115;BME280;62188;35.640;139.748;2023-04-04T03:41:18;102324.06;;;22.55;19.51
64115;BME280;62188;35.640;139.748;2023-04-04T03:43:42;102319.61;;;22.69;19.06
64115;BME280;62188;35.640;139.748;2023-04-04T03:46:08;102325.77;;;22.76;19.56
64115;BME280;62188;35.640;139.748;2023-04-04T03:48:34;102318.41;;;22.57;19.92
64115;BME280;62188;35.640;139.748;2023-04-04T03:51:01;102313.26;;;22.26;19.88
64115;BME280;62188;35.640;139.748;2023-04-04T03:53:25;102310.67;;;22.65;19.66
64115;BME280;62188;35.640;139.748;2023-04-04T03:55:50;102306.89;;;22.63;19.00
64115;BME280;62188;35.640;139.748;2023-04-04T03:58:15;102296.98;;;22.67;19.17
64115;BME280;62188;35.640;139.748;2023-04-04T04:00:41;102294.60;;;22.88;18.95
64115;BME280;62188;35.640;139.748;2023-04-04T04:03:07;102292.10;;;22.81;18.91
64115;BME280;62188;35.640;139.748;2023-04-04T04:05:32;102290.85;;;23.04;18.67
64115;BME280;62188;35.640;139.748;2023-04-04T04:07:58;102284.71;;;22.78;18.65
64115;BME280;62188;35.640;139.748;2023-04-04T04:10:22;102288.07;;;22.78;18.05
64115;BME280;62188;35.640;139.748;2023-04-04T04:12:48;102283.62;;;22.99;18.18
64115;BME280;62188;35.640;139.748;2023-04-04T04:15:13;102278.72;;;22.77;17.27
64115;BME280;62188;35.640;139.748;2023-04-04T04:17:40;102275.81;;;22.77;17.85
64115;BME280;62188;35.640;139.748;2023-04-04T04:20:08;102274.66;;;22.78;18.40
64115;BME280;62188;35.640;139.748;2023-04-04T04:22:30;102273.03;;;22.81;18.12
64115;BME280;62188;35.640;139.748;2023-04-04T04:24:55;102264.68;;;22.83;17.40
64115;BME280;62188;35.640;139.748;2023-04-04T04:27:21;102262.87;;;22.46;17.60
64115;BME280;62188;35.640;139.748;2023-04-04T04:29:46;102258.24;;;22.24;17.51
64115;BME280;62188;35.640;139.748;2023-04-04T04:32:15;102258.24;;;22.16;18.26
64115;BME280;62188;35.640;139.748;2023-04-04T04:34:37;102255.19;;;22.25;18.47
64115;BME280;62188;35.640;139.748;2023-04-04T04:37:02;102254.21;;;22.12;18.87
64115;BME280;62188;35.640;139.748;2023-04-04T04:39:28;102244.62;;;22.26;18.91
64115;BME280;62188;35.640;139.748;2023-04-04T04:41:53;102238.41;;;22.30;19.30
64115;BME280;62188;35.640;139.748;2023-04-04T04:44:19;102235.86;;;21.88;18.69
64115;BME280;62188;35.640;139.748;2023-04-04T04:46:44;102240.58;;;21.84;19.21
64115;BME280;62188;35.640;139.748;2023-04-04T04:49:09;102243.56;;;21.79;19.43
64115;BME280;62188;35.640;139.748;2023-04-04T04:51:35;102238.94;;;21.71;19.82
64115;BME280;62188;35.640;139.748;2023-04-04T04:54:01;102237.20;;;22.17;20.24
64115;BME280;62188;35.640;139.748;2023-04-04T04:56:26;102228.58;;;21.56;20.14
64115;BME280;62188;35.640;139.748;2023-04-04T04:58:52;102227.58;;;21.27;20.12
64115;BME280;62188;35.640;139.748;2023-04-04T05:01:17;102226.95;;;21.27;20.13
64115;BME280;62188;35.640;139.748;2023-04-04T05:03:43;102219.48;;;21.15;21.05
64115;BME280;62188;35.640;139.748;2023-04-04T05:06:08;102215.67;;;21.00;21.26
64115;BME280;62188;35.640;139.748;2023-04-04T05:08:34;102217.61;;;20.89;21.58
64115;BME280;62188;35.640;139.748;2023-04-04T05:10:59;102220.04;;;20.95;21.37
64115;BME280;62188;35.640;139.748;2023-04-04T05:13:25;102216.67;;;20.88;20.39
64115;BME280;62188;35.640;139.748;2023-04-04T05:15:51;102213.13;;;20.86;19.53
64115;BME280;62188;35.640;139.748;2023-04-04T05:18:17;102218.52;;;20.88;20.33
64115;BME280;62188;35.640;139.748;2023-04-04T05:20:42;102214.64;;;20.55;20.63
64115;BME280;62188;35.640;139.748;2023-04-04T05:23:07;102207.73;;;20.55;21.02
64115;BME280;62188;35.640;139.748;2023-04-04T05:25:33;102206.42;;;20.77;20.91
64115;BME280;62188;35.640;139.748;2023-04-04T05:27:58;102194.61;;;20.80;20.29
64115;BME280;62188;35.640;139.748;2023-04-04T05:30:24;102195.65;;;20.78;20.09
64115;BME280;62188;35.640;139.748;2023-04-04T05:32:51;102194.39;;;20.71;19.94
64115;BME280;62188;35.640;139.748;2023-04-04T05:35:15;102194.37;;;20.74;19.41
64115;BME280;62188;35.640;139.748;2023-04-04T05:37:41;102194.53;;;20.61;18.71
64115;BME280;62188;35.640;139.748;2023-04-04T05:40:07;102190.80;;;20.35;18.45
64115;BME280;62188;35.640;139.748;2023-04-04T05:42:31;102187.26;;;20.44;18.44
64115;BME280;62188;35.640;139.748;2023-04-04T05:44:57;102190.24;;;20.62;18.69
64115;BME280;62188;35.640;139.748;2023-04-04T05:47:23;102182.75;;;20.70;18.86
64115;BME280;62188;35.640;139.748;2023-04-04T05:49:48;102187.19;;;20.85;19.41
64115;BME280;62188;35.640;139.748;2023-04-04T05:52:14;102189.83;;;20.91;19.53
64115;BME280;62188;35.640;139.748;2023-04-04T05:54:39;102188.62;;;20.97;19.41
64115;BME280;62188;35.640;139.748;2023-04-04T05:57:05;102188.49;;;20.88;19.03
64115;BME280;62188;35.640;139.748;2023-04-04T05:59:30;102191.23;;;20.92;19.11
64115;BME280;62188;35.640;139.748;2023-04-04T06:01:56;102192.97;;;20.76;18.80
64115;BME280;62188;35.640;139.748;2023-04-04T06:04:21;102189.69;;;20.52;18.62
64115;BME280;62188;35.640;139.748;2023-04-04T06:06:47;102189.79;;;20.65;18.78
64115;BME280;62188;35.640;139.748;2023-04-04T06:09:12;102188.25;;;20.73;18.79
64115;BME280;62188;35.640;139.748;2023-04-04T06:11:38;102190.62;;;20.74;18.03
64115;BME280;62188;35.640;139.748;2023-04-04T06:14:03;102186.29;;;20.79;17.99
64115;BME280;62188;35.640;139.748;2023-04-04T06:16:28;102182.54;;;20.68;17.81
64115;BME280;62188;35.640;139.748;2023-04-04T06:18:54;102178.78;;;20.72;18.09
64115;BME280;62188;35.640;139.748;2023-04-04T06:21:19;102177.65;;;20.77;17.83
64115;BME280;62188;35.640;139.748;2023-04-04T06:23:45;102179.52;;;20.79;17.54
64115;BME280;62188;35.640;139.748;2023-04-04T06:26:11;102182.70;;;20.79;17.89
64115;BME280;62188;35.640;139.748;2023-04-04T06:28:35;102176.80;;;20.24;17.42
64115;BME280;62188;35.640;139.748;2023-04-04T06:31:01;102172.74;;;20.47;17.65
64115;BME280;62188;35.640;139.748;2023-04-04T06:33:27;102170.94;;;20.66;17.91
64115;BME280;62188;35.640;139.748;2023-04-04T06:35:52;102168.70;;;20.64;18.90
64115;BME280;62188;35.640;139.748;2023-04-04T06:38:17;102168.88;;;20.62;18.80
64115;BME280;62188;35.640;139.748;2023-04-04T06:40:43;102171.84;;;20.45;19.44
64115;BME280;62188;35.640;139.748;2023-04-04T06:43:08;102174.39;;;20.53;19.54
64115;BME280;62188;35.640;139.748;2023-04-04T06:45:35;102176.24;;;20.28;19.17
64115;BME280;62188;35.640;139.748;2023-04-04T06:48:00;102179.33;;;20.80;18.08
64115;BME280;62188;35.640;139.748;2023-04-04T06:50:25;102182.45;;;20.85;18.00
64115;BME280;62188;35.640;139.748;2023-04-04T06:52:51;102187.01;;;20.90;17.76
64115;BME280;62188;35.640;139.748;2023-04-04T06:55:15;102186.45;;;20.81;17.79
64115;BME280;62188;35.640;139.748;2023-04-04T06:57:41;102185.47;;;20.43;18.18
64115;BME280;62188;35.640;139.748;2023-04-04T07:00:09;102181.33;;;20.70;18.96
64115;BME280;62188;35.640;139.748;2023-04-04T07:02:32;102185.24;;;20.31;18.02
64115;BME280;62188;35.640;139.748;2023-04-04T07:04:57;102186.56;;;20.18;17.20
64115;BME280;62188;35.640;139.748;2023-04-04T07:07:23;102183.02;;;20.40;17.44
64115;BME280;62188;35.640;139.748;2023-04-04T07:09:49;102183.90;;;20.34;17.63
64115;BME280;62188;35.640;139.748;2023-04-04T07:12:14;102179.50;;;20.66;17.60
64115;BME280;62188;35.640;139.748;2023-04-04T07:14:40;102174.18;;;20.58;17.83
64115;BME280;62188;35.640;139.748;2023-04-04T07:17:05;102175.16;;;20.52;17.71
64115;BME280;62188;35.640;139.748;2023-04-04T07:19:31;102173.60;;;20.47;17.23
64115;BME280;62188;35.640;139.748;2023-04-04T07:21:56;102171.98;;;20.55;17.00
64115;BME280;62188;35.640;139.748;2023-04-04T07:24:22;102174.72;;;20.56;17.06
64115;BME280;62188;35.640;139.748;2023-04-04T07:26:48;102179.10;;;20.50;16.58
64115;BME280;62188;35.640;139.748;2023-04-04T07:29:14;102175.23;;;20.55;16.66
64115;BME280;62188;35.640;139.748;2023-04-04T07:31:39;102177.19;;;20.62;16.97
64115;BME280;62188;35.640;139.748;2023-04-04T07:34:04;102178.71;;;20.63;17.39
64115;BME280;62188;35.640;139.748;2023-04-04T07:36:29;102187.36;;;20.63;17.89
64115;BME280;62188;35.640;139.748;2023-04-04T07:38:55;102187.77;;;20.77;17.92
64115;BME280;62188;35.640;139.748;2023-04-04T07:41:20;102183.06;;;21.09;17.98
64115;BME280;62188;35.640;139.748;2023-04-04T07:43:46;102180.44;;;20.88;17.90
64115;BME280;62188;35.640;139.748;2023-04-04T07:46:11;102181.93;;;20.88;17.87
64115;BME280;62188;35.640;139.748;2023-04-04T07:48:37;102179.92;;;20.50;17.62
64115;BME280;62188;35.640;139.748;2023-04-04T07:51:03;102186.53;;;20.60;17.90
64115;BME280;62188;35.640;139.748;2023-04-04T07:53:28;102191.63;;;20.61;17.55
64115;BME280;62188;35.640;139.748;2023-04-04T07:55:53;102191.34;;;20.54;17.61
64115;BME280;62188;35.640;139.748;2023-04-04T07:58:19;102186.38;;;20.47;17.43
64115;BME280;62188;35.640;139.748;2023-04-04T08:00:44;102186.57;;;20.35;17.03
64115;BME280;62188;35.640;139.748;2023-04-04T08:03:10;102191.44;;;20.40;16.15
64115;BME280;62188;35.640;139.748;2023-04-04T08:05:35;102190.08;;;20.54;16.71
64115;BME280;62188;35.640;139.748;2023-04-04T08:08:01;102197.04;;;20.22;17.11
64115;BME280;62188;35.640;139.748;2023-04-04T08:10:26;102200.81;;;20.15;17.48
64115;BME280;62188;35.640;139.748;2023-04-04T08:12:52;102201.87;;;20.04;17.64
64115;BME280;62188;35.640;139.748;2023-04-04T08:15:18;102201.14;;;20.28;18.06
64115;BME280;62188;35.640;139.748;2023-04-04T08:17:43;102197.37;;;19.95;18.17
64115;BME280;62188;35.640;139.748;2023-04-04T08:20:10;102194.92;;;20.21;18.28
64115;BME280;62188;35.640;139.748;2023-04-04T08:22:35;102197.56;;;20.29;18.32
64115;BME280;62188;35.640;139.748;2023-04-04T08:25:00;102196.58;;;19.87;18.57
64115;BME280;62188;35.640;139.748;2023-04-04T08:27:25;102200.56;;;20.14;18.61
64115;BME280;62188;35.640;139.748;2023-04-04T08:29:50;102202.77;;;20.13;18.88
64115;BME280;62188;35.640;139.748;2023-04-04T08:32:16;102202.93;;;19.89;19.06
64115;BME280;62188;35.640;139.748;2023-04-04T08:34:42;102201.06;;;19.99;19.09
64115;BME280;62188;35.640;139.748;2023-04-04T08:37:07;102207.85;;;20.06;19.08
64115;BME280;62188;35.640;139.748;2023-04-04T08:39:32;102208.62;;;19.86;19.20
64115;BME280;62188;35.640;139.748;2023-04-04T08:42:02;102207.27;;;20.19;19.17
64115;BME280;62188;35.640;139.748;2023-04-04T08:44:24;102205.85;;;20.24;19.42
64115;BME280;62188;35.640;139.748;2023-04-04T08:46:49;102205.08;;;20.04;19.33
64115;BME280;62188;35.640;139.748;2023-04-04T08:49:16;102202.39;;;20.15;19.36
64115;BME280;62188;35.640;139.748;2023-04-04T08:51:40;102203.67;;;20.25;19.47
64115;BME280;62188;35.640;139.748;2023-04-04T08:54:06;102199.50;;;19.91;19.81
64115;BME280;62188;35.640;139.748;2023-04-04T08:56:30;102206.24;;;19.86;20.30
64115;BME280;62188;35.640;139.748;2023-04-04T08:58:56;102208.40;;;19.83;21.97
64115;BME280;62188;35.640;139.748;2023-04-04T09:01:23;102210.30;;;20.04;22.18
64115;BME280;62188;35.640;139.748;2023-04-04T09:03:48;102212.36;;;20.03;22.20
64115;BME280;62188;35.640;139.748;2023-04-04T09:06:14;102215.77;;;20.09;22.41
64115;BME280;62188;35.640;139.748;2023-04-04T09:08:39;102215.99;;;20.19;22.40
64115;BME280;62188;35.640;139.748;2023-04-04T09:11:04;102209.45;;;19.97;22.37
64115;BME280;62188;35.640;139.748;2023-04-04T09:13:29;102205.52;;;19.92;22.24
64115;BME280;62188;35.640;139.748;2023-04-04T09:15:55;102204.51;;;20.01;22.19
64115;BME280;62188;35.640;139.748;2023-04-04T09:18:20;102215.90;;;19.79;22.00
64115;BME280;62188;35.640;139.748;2023-04-04T09:20:46;102213.11;;;19.66;22.06
64115;BME280;62188;35.640;139.748;2023-04-04T09:23:13;102221.70;;;20.02;21.91
64115;BME280;62188;35.640;139.748;2023-04-04T09:25:37;102227.49;;;20.03;22.13
64115;BME280;62188;35.640;139.748;2023-04-04T09:28:03;102228.81;;;20.02;22.40
64115;BME280;62188;35.640;139.748;2023-04-04T09:30:28;102232.30;;;20.04;22.63
64115;BME280;62188;35.640;139.748;2023-04-04T09:32:53;102236.49;;;19.79;22.92
64115;BME280;62188;35.640;139.748;2023-04-04T09:35:19;102237.58;;;19.93;23.25
64115;BME280;62188;35.640;139.748;2023-04-04T09:37:44;102241.89;;;19.66;23.43
64115;BME280;62188;35.640;139.748;2023-04-04T09:40:11;102238.58;;;19.98;23.21
64115;BME280;62188;35.640;139.748;2023-04-04T09:42:36;102239.74;;;19.75;23.32
64115;BME280;62188;35.640;139.748;2023-04-04T09:45:02;102242.84;;;20.00;23.52
64115;BME280;62188;35.640;139.748;2023-04-04T09:47:28;102247.16;;;19.76;24.00
64115;BME280;62188;35.640;139.748;2023-04-04T09:49:53;102254.75;;;20.00;24.66
64115;BME280;62188;35.640;139.748;2023-04-04T09:52:19;102256.73;;;19.74;25.26
64115;BME280;62188;35.640;139.748;2023-04-04T09:54:44;102258.68;;;19.43;25.80
64115;BME280;62188;35.640;139.748;2023-04-04T09:57:10;102261.10;;;19.70;26.31
64115;BME280;62188;35.640;139.748;2023-04-04T09:59:34;102260.26;;;19.33;26.65
64115;BME280;62188;35.640;139.748;2023-04-04T10:02:02;102263.57;;;19.29;26.98
64115;BME280;62188;35.640;139.748;2023-04-04T10:04:25;102273.33;;;19.22;27.17
64115;BME280;62188;35.640;139.748;2023-04-04T10:06:50;102284.35;;;19.12;27.41
64115;BME280;62188;35.640;139.748;2023-04-04T10:09:16;102288.72;;;19.10;27.42
64115;BME280;62188;35.640;139.748;2023-04-04T10:11:42;102293.86;;;19.07;27.62
64115;BME280;62188;35.640;139.748;2023-04-04T10:14:09;102297.88;;;19.06;27.78
64115;BME280;62188;35.640;139.748;2023-04-04T10:16:33;102299.18;;;19.18;27.83
64115;BME280;62188;35.640;139.748;2023-04-04T10:18:59;102303.77;;;19.58;27.58
64115;BME280;62188;35.640;139.748;2023-04-04T10:21:24;102307.61;;;19.42;27.55
64115;BME280;62188;35.640;139.748;2023-04-04T10:23:50;102306.97;;;19.24;27.59
64115;BME280;62188;35.640;139.748;2023-04-04T10:26:15;102311.75;;;19.28;27.77
64115;BME280;62188;35.640;139.748;2023-04-04T10:28:41;102324.37;;;19.07;28.04
64115;BME280;62188;35.640;139.748;2023-04-04T10:31:13;102329.26;;;18.89;28.30
64115;BME280;62188;35.640;139.748;2023-04-04T10:33:38;102335.07;;;19.13;28.41
64115;BME280;62188;35.640;139.748;2023-04-04T10:36:00;102334.77;;;18.97;28.42
64115;BME280;62188;35.640;139.748;2023-04-04T10:38:28;102338.62;;;19.16;28.19
64115;BME280;62188;35.640;139.748;2023-04-04T10:40:50;102345.77;;;19.32;28.10
64115;BME280;62188;35.640;139.748;2023-04-04T10:43:16;102350.60;;;19.31;27.89
64115;BME280;62188;35.640;139.748;2023-04-04T10:45:40;102350.06;;;19.22;27.94
64115;BME280;62188;35.640;139.748;2023-04-04T10:48:05;102347.60;;;19.23;27.97
64115;BME280;62188;35.640;139.748;2023-04-04T10:50:30;102340.92;;;19.26;28.08
64115;BME280;62188;35.640;139.748;2023-04-04T10:52:56;102327.33;;;19.19;28.13
64115;BME280;62188;35.640;139.748;2023-04-04T10:55:22;102328.23;;;18.91;28.15
64115;BME280;62188;35.640;139.748;2023-04-04T10:57:49;102331.52;;;19.04;28.36
64115;BME280;62188;35.640;139.748;2023-04-04T11:00:14;102339.41;;;19.03;28.42
64115;BME280;62188;35.640;139.748;2023-04-04T11:02:46;102341.05;;;18.93;28.64
64115;BME280;62188;35.640;139.748;2023-04-04T11:05:09;102346.04;;;19.03;28.54
64115;BME280;62188;35.640;139.748;2023-04-04T11:07:30;102353.75;;;19.16;28.65
64115;BME280;62188;35.640;139.748;2023-04-04T11:09:55;102362.83;;;19.20;28.63
64115;BME280;62188;35.640;139.748;2023-04-04T11:12:26;102373.17;;;19.22;28.56
64115;BME280;62188;35.640;139.748;2023-04-04T11:14:55;102375.24;;;19.10;28.54
64115;BME280;62188;35.640;139.748;2023-04-04T11:17:11;102379.69;;;19.17;28.91
64115;BME280;62188;35.640;139.748;2023-04-04T11:19:38;102391.63;;;19.50;28.84
64115;BME280;62188;35.640;139.748;2023-04-04T11:22:03;102392.60;;;19.56;30.31
64115;BME280;62188;35.640;139.748;2023-04-04T11:24:28;102398.50;;;19.64;30.30
64115;BME280;62188;35.640;139.748;2023-04-04T11:26:54;102397.64;;;19.66;29.06
64115;BME280;62188;35.640;139.748;2023-04-04T11:31:47;102388.69;;;19.66;29.59
64115;BME280;62188;35.640;139.748;2023-04-04T11:34:11;102385.91;;;19.65;29.67
64115;BME280;62188;35.640;139.748;2023-04-04T11:36:51;102387.42;;;19.31;30.09
64115;BME280;62188;35.640;139.748;2023-04-04T11:39:03;102395.03;;;19.32;29.40
64115;BME280;62188;35.640;139.748;2023-04-04T11:43:52;102399.89;;;19.48;28.66
64115;BME280;62188;35.640;139.748;2023-04-04T11:46:18;102392.12;;;19.43;28.76
64115;BME280;62188;35.640;139.748;2023-04-04T11:48:44;102390.15;;;19.45;29.32
64115;BME280;62188;35.640;139.748;2023-04-04T11:51:07;102394.16;;;19.50;29.93
64115;BME280;62188;35.640;139.748;2023-04-04T11:53:33;102397.46;;;19.33;29.91
64115;BME280;62188;35.640;139.748;2023-04-04T11:56:04;102396.03;;;19.47;29.99
64115;BME280;62188;35.640;139.748;2023-04-04T11:58:26;102392.82;;;19.45;29.98
64115;BME280;62188;35.640;139.748;2023-04-04T12:00:50;102393.76;;;19.16;31.04
64115;BME280;62188;35.640;139.748;2023-04-04T12:03:16;102398.73;;;19.43;29.72
64115;BME280;62188;35.640;139.748;2023-04-04T12:05:42;102400.36;;;19.08;29.44
64115;BME280;62188;35.640;139.748;2023-04-04T12:08:08;102401.61;;;19.29;29.82
64115;BME280;62188;35.640;139.748;2023-04-04T12:10:35;102399.20;;;19.14;29.45
64115;BME280;62188;35.640;139.748;2023-04-04T12:12:58;102399.19;;;19.37;29.05
64115;BME280;62188;35.640;139.748;2023-04-04T12:15:23;102399.57;;;19.23;29.30
64115;BME280;62188;35.640;139.748;2023-04-04T12:17:48;102397.55;;;19.08;30.18
64115;BME280;62188;35.640;139.748;2023-04-04T12:20:16;102395.69;;;19.14;30.40
64115;BME280;62188;35.640;139.748;2023-04-04T12:22:39;102395.32;;;18.98;30.46
64115;BME280;62188;35.640;139.748;2023-04-04T12:25:04;102401.98;;;18.85;30.70